sensor_id;sensor_type;location;lat;lon;timestamp;P1;durP1;ratioP1;P2;durP2;ratioP2
19161;SDS011;9713;48.140;11.530;2023-12-14T00:00:10;1.77;;;0.90;;
19161;SDS011;9713;48.140;11.530;2023-12-14T00:03:53;2.37;;;1.00;;
19161;SDS011;9713;48.140;11.530;2023-12-14T00:07:36;2.70;;;0.90;;
19161;SDS011;9713;48.140;11.530;2023-12-14T00:11:19;3.30;;;1.50;;
19161;SDS011;9713;48.140;11.530;2023-12-14T00:15:04;2.53;;;1.27;;
19161;SDS011;9713;48.140;11.530;2023-12-14T00:18:48;1.33;;;0.80;;
19161;SDS011;9713;48.140;11.530;2023-12-14T00:22:30;1.33;;;0.90;;
19161;SDS011;9713;48.140;11.530;2023-12-14T00:26:14;2.30;;;1.00;;
19161;SDS011;9713;48.140;11.530;2023-12-14T00:29:58;0.83;;;0.80;;
19161;SDS011;9713;48.140;11.530;2023-12-14T00:33:43;1.07;;;0.90;;
19161;SDS011;9713;48.140;11.530;2023-12-14T00:37:26;2.87;;;1.00;;
19161;SDS011;9713;48.140;11.530;2023-12-14T00:41:09;4.50;;;2.20;;
19161;SDS011;9713;48.140;11.530;2023-12-14T00:44:51;1.87;;;1.50;;
19161;SDS011;9713;48.140;11.530;2023-12-14T00:48:34;1.17;;;0.90;;
19161;SDS011;9713;48.140;11.530;2023-12-14T00:52:18;1.83;;;1.00;;
19161;SDS011;9713;48.140;11.530;2023-12-14T00:56:01;1.90;;;1.03;;
19161;SDS011;9713;48.140;11.530;2023-12-14T00:59:44;2.50;;;1.17;;
19161;SDS011;9713;48.140;11.530;2023-12-14T01:03:27;1.67;;;1.20;;
19161;SDS011;9713;48.140;11.530;2023-12-14T01:07:10;2.17;;;1.20;;
19161;SDS011;9713;48.140;11.530;2023-12-14T01:10:54;1.23;;;1.07;;
19161;SDS011;9713;48.140;11.530;2023-12-14T01:14:37;1.63;;;1.00;;
19161;SDS011;9713;48.140;11.530;2023-12-14T01:18:20;4.53;;;0.70;;
19161;SDS011;9713;48.140;11.530;2023-12-14T01:22:03;1.10;;;0.80;;
19161;SDS011;9713;48.140;11.530;2023-12-14T01:25:46;1.87;;;0.90;;
19161;SDS011;9713;48.140;11.530;2023-12-14T01:29:30;0.97;;;0.70;;
19161;SDS011;9713;48.140;11.530;2023-12-14T01:33:13;0.70;;;0.70;;
19161;SDS011;9713;48.140;11.530;2023-12-14T01:36:56;1.07;;;0.80;;
19161;SDS011;9713;48.140;11.530;2023-12-14T01:40:38;1.27;;;0.80;;
19161;SDS011;9713;48.140;11.530;2023-12-14T01:44:21;1.20;;;0.80;;
19161;SDS011;9713;48.140;11.530;2023-12-14T01:48:06;1.17;;;0.90;;
19161;SDS011;9713;48.140;11.530;2023-12-14T01:51:49;1.17;;;0.83;;
19161;SDS011;9713;48.140;11.530;2023-12-14T01:55:31;0.80;;;0.73;;
19161;SDS011;9713;48.140;11.530;2023-12-14T01:59:14;1.30;;;0.93;;
19161;SDS011;9713;48.140;11.530;2023-12-14T02:02:57;0.80;;;0.80;;
19161;SDS011;9713;48.140;11.530;2023-12-14T02:06:41;0.90;;;0.70;;
19161;SDS011;9713;48.140;11.530;2023-12-14T02:10:24;1.40;;;0.90;;
19161;SDS011;9713;48.140;11.530;2023-12-14T02:14:08;1.43;;;0.77;;
19161;SDS011;9713;48.140;11.530;2023-12-14T02:17:52;1.63;;;1.10;;
19161;SDS011;9713;48.140;11.530;2023-12-14T02:21:35;1.77;;;1.20;;
19161;SDS011;9713;48.140;11.530;2023-12-14T02:25:19;3.03;;;1.23;;
19161;SDS011;9713;48.140;11.530;2023-12-14T02:29:03;2.40;;;1.40;;
19161;SDS011;9713;48.140;11.530;2023-12-14T02:32:45;1.30;;;1.00;;
19161;SDS011;9713;48.140;11.530;2023-12-14T02:36:28;1.20;;;1.10;;
19161;SDS011;9713;48.140;11.530;2023-12-14T02:40:11;1.30;;;1.17;;
19161;SDS011;9713;48.140;11.530;2023-12-14T02:43:55;1.67;;;1.20;;
19161;SDS011;9713;48.140;11.530;2023-12-14T02:47:38;1.23;;;1.00;;
19161;SDS011;9713;48.140;11.530;2023-12-14T02:51:21;2.10;;;1.10;;
19161;SDS011;9713;48.140;11.530;2023-12-14T02:55:04;1.30;;;1.00;;
19161;SDS011;9713;48.140;11.530;2023-12-14T02:58:47;1.30;;;1.07;;
19161;SDS011;9713;48.140;11.530;2023-12-14T03:02:36;1.80;;;1.20;;
19161;SDS011;9713;48.140;11.530;2023-12-14T03:06:19;1.10;;;1.00;;
19161;SDS011;9713;48.140;11.530;2023-12-14T03:10:02;1.70;;;1.20;;
19161;SDS011;9713;48.140;11.530;2023-12-14T03:13:46;1.37;;;1.10;;
19161;SDS011;9713;48.140;11.530;2023-12-14T03:17:28;1.50;;;1.30;;
19161;SDS011;9713;48.140;11.530;2023-12-14T03:21:13;1.50;;;1.30;;
19161;SDS011;9713;48.140;11.530;2023-12-14T03:24:55;1.37;;;1.20;;
19161;SDS011;9713;48.140;11.530;2023-12-14T03:28:38;4.23;;;1.60;;
19161;SDS011;9713;48.140;11.530;2023-12-14T03:32:21;1.50;;;1.33;;
19161;SDS011;9713;48.140;11.530;2023-12-14T03:36:04;2.60;;;2.27;;
19161;SDS011;9713;48.140;11.530;2023-12-14T03:39:48;1.70;;;1.50;;
19161;SDS011;9713;48.140;11.530;2023-12-14T03:43:32;1.90;;;1.47;;
19161;SDS011;9713;48.140;11.530;2023-12-14T03:47:14;2.27;;;1.50;;
19161;SDS011;9713;48.140;11.530;2023-12-14T03:50:57;1.60;;;1.20;;
19161;SDS011;9713;48.140;11.530;2023-12-14T03:54:40;1.37;;;1.23;;
19161;SDS011;9713;48.140;11.530;2023-12-14T03:58:24;1.60;;;1.30;;
19161;SDS011;9713;48.140;11.530;2023-12-14T04:02:07;1.47;;;1.30;;
19161;SDS011;9713;48.140;11.530;2023-12-14T04:05:50;2.13;;;1.50;;
19161;SDS011;9713;48.140;11.530;2023-12-14T04:09:33;1.67;;;1.57;;
19161;SDS011;9713;48.140;11.530;2023-12-14T04:13:16;3.03;;;1.60;;
19161;SDS011;9713;48.140;11.530;2023-12-14T04:17:00;1.70;;;1.40;;
19161;SDS011;9713;48.140;11.530;2023-12-14T04:20:43;1.93;;;1.57;;
19161;SDS011;9713;48.140;11.530;2023-12-14T04:24:26;1.93;;;1.63;;
19161;SDS011;9713;48.140;11.530;2023-12-14T04:28:09;1.63;;;1.50;;
19161;SDS011;9713;48.140;11.530;2023-12-14T04:31:51;1.83;;;1.30;;
19161;SDS011;9713;48.140;11.530;2023-12-14T04:35:36;2.00;;;1.30;;
19161;SDS011;9713;48.140;11.530;2023-12-14T04:39:19;1.50;;;1.20;;
19161;SDS011;9713;48.140;11.530;2023-12-14T04:43:01;2.20;;;1.30;;
19161;SDS011;9713;48.140;11.530;2023-12-14T04:46:44;2.07;;;1.40;;
19161;SDS011;9713;48.140;11.530;2023-12-14T04:50:27;1.87;;;1.10;;
19161;SDS011;9713;48.140;11.530;2023-12-14T04:54:11;1.53;;;0.90;;
19161;SDS011;9713;48.140;11.530;2023-12-14T04:57:54;1.67;;;1.10;;
19161;SDS011;9713;48.140;11.530;2023-12-14T05:01:37;0.80;;;0.70;;
19161;SDS011;9713;48.140;11.530;2023-12-14T05:05:20;0.93;;;0.83;;
19161;SDS011;9713;48.140;11.530;2023-12-14T05:09:03;1.30;;;0.80;;
19161;SDS011;9713;48.140;11.530;2023-12-14T05:12:48;3.33;;;0.80;;
19161;SDS011;9713;48.140;11.530;2023-12-14T05:16:31;0.77;;;0.70;;
19161;SDS011;9713;48.140;11.530;2023-12-14T05:20:14;1.10;;;0.80;;
19161;SDS011;9713;48.140;11.530;2023-12-14T05:23:56;1.57;;;0.80;;
19161;SDS011;9713;48.140;11.530;2023-12-14T05:27:40;0.87;;;0.70;;
19161;SDS011;9713;48.140;11.530;2023-12-14T05:31:24;1.57;;;1.00;;
19161;SDS011;9713;48.140;11.530;2023-12-14T05:35:07;2.27;;;1.10;;
19161;SDS011;9713;48.140;11.530;2023-12-14T05:38:51;1.57;;;0.90;;
19161;SDS011;9713;48.140;11.530;2023-12-14T05:42:33;1.27;;;0.97;;
19161;SDS011;9713;48.140;11.530;2023-12-14T05:46:20;1.90;;;1.57;;
19161;SDS011;9713;48.140;11.530;2023-12-14T05:50:05;2.83;;;1.57;;
19161;SDS011;9713;48.140;11.530;2023-12-14T05:53:50;2.80;;;1.50;;
19161;SDS011;9713;48.140;11.530;2023-12-14T05:57:33;3.27;;;1.70;;
19161;SDS011;9713;48.140;11.530;2023-12-14T06:01:16;2.53;;;1.70;;
19161;SDS011;9713;48.140;11.530;2023-12-14T06:05:00;2.43;;;1.60;;
19161;SDS011;9713;48.140;11.530;2023-12-14T06:08:44;2.57;;;1.80;;
19161;SDS011;9713;48.140;11.530;2023-12-14T06:12:27;3.80;;;2.30;;
19161;SDS011;9713;48.140;11.530;2023-12-14T06:16:10;3.67;;;2.00;;
19161;SDS011;9713;48.140;11.530;2023-12-14T06:19:54;3.30;;;2.00;;
19161;SDS011;9713;48.140;11.530;2023-12-14T06:23:37;2.70;;;2.00;;
19161;SDS011;9713;48.140;11.530;2023-12-14T06:27:21;3.77;;;2.30;;
19161;SDS011;9713;48.140;11.530;2023-12-14T06:31:11;3.83;;;2.50;;
19161;SDS011;9713;48.140;11.530;2023-12-14T06:34:54;4.57;;;2.17;;
19161;SDS011;9713;48.140;11.530;2023-12-14T06:38:38;5.37;;;2.20;;
19161;SDS011;9713;48.140;11.530;2023-12-14T06:42:23;4.63;;;2.60;;
19161;SDS011;9713;48.140;11.530;2023-12-14T06:46:05;5.27;;;2.30;;
19161;SDS011;9713;48.140;11.530;2023-12-14T06:49:48;3.87;;;2.37;;
19161;SDS011;9713;48.140;11.530;2023-12-14T06:53:31;5.90;;;2.87;;
19161;SDS011;9713;48.140;11.530;2023-12-14T06:57:14;18.07;;;4.33;;
19161;SDS011;9713;48.140;11.530;2023-12-14T07:01:00;4.73;;;3.20;;
19161;SDS011;9713;48.140;11.530;2023-12-14T07:04:43;6.80;;;3.60;;
19161;SDS011;9713;48.140;11.530;2023-12-14T07:08:26;9.50;;;4.10;;
19161;SDS011;9713;48.140;11.530;2023-12-14T07:12:09;9.00;;;4.30;;
19161;SDS011;9713;48.140;11.530;2023-12-14T07:15:53;11.57;;;4.90;;
19161;SDS011;9713;48.140;11.530;2023-12-14T07:19:37;8.90;;;4.73;;
19161;SDS011;9713;48.140;11.530;2023-12-14T07:23:20;9.97;;;4.63;;
19161;SDS011;9713;48.140;11.530;2023-12-14T07:27:02;9.37;;;4.67;;
19161;SDS011;9713;48.140;11.530;2023-12-14T07:30:46;7.80;;;4.80;;
19161;SDS011;9713;48.140;11.530;2023-12-14T07:34:29;8.90;;;4.50;;
19161;SDS011;9713;48.140;11.530;2023-12-14T07:38:13;9.17;;;5.00;;
19161;SDS011;9713;48.140;11.530;2023-12-14T07:41:56;6.80;;;4.57;;
19161;SDS011;9713;48.140;11.530;2023-12-14T07:45:39;8.23;;;5.20;;
19161;SDS011;9713;48.140;11.530;2023-12-14T07:49:22;8.73;;;4.70;;
19161;SDS011;9713;48.140;11.530;2023-12-14T07:53:05;7.50;;;4.50;;
19161;SDS011;9713;48.140;11.530;2023-12-14T07:56:49;7.50;;;4.77;;
19161;SDS011;9713;48.140;11.530;2023-12-14T08:00:32;7.87;;;4.87;;
19161;SDS011;9713;48.140;11.530;2023-12-14T08:04:15;7.30;;;4.93;;
19161;SDS011;9713;48.140;11.530;2023-12-14T08:07:57;8.27;;;4.87;;
19161;SDS011;9713;48.140;11.530;2023-12-14T08:11:41;6.40;;;4.60;;
19161;SDS011;9713;48.140;11.530;2023-12-14T08:15:25;10.03;;;5.07;;
19161;SDS011;9713;48.140;11.530;2023-12-14T08:19:07;10.33;;;5.00;;
19161;SDS011;9713;48.140;11.530;2023-12-14T08:22:50;11.07;;;5.23;;
19161;SDS011;9713;48.140;11.530;2023-12-14T08:26:33;10.43;;;5.40;;
19161;SDS011;9713;48.140;11.530;2023-12-14T08:30:16;10.10;;;5.00;;
19161;SDS011;9713;48.140;11.530;2023-12-14T08:34:00;9.13;;;4.87;;
19161;SDS011;9713;48.140;11.530;2023-12-14T08:37:44;12.77;;;5.00;;
19161;SDS011;9713;48.140;11.530;2023-12-14T08:41:27;8.30;;;5.20;;
19161;SDS011;9713;48.140;11.530;2023-12-14T08:45:10;9.43;;;5.50;;
19161;SDS011;9713;48.140;11.530;2023-12-14T08:48:53;8.13;;;4.93;;
19161;SDS011;9713;48.140;11.530;2023-12-14T08:52:38;9.13;;;4.90;;
19161;SDS011;9713;48.140;11.530;2023-12-14T08:56:21;9.27;;;4.80;;
19161;SDS011;9713;48.140;11.530;2023-12-14T09:00:04;9.73;;;4.60;;
19161;SDS011;9713;48.140;11.530;2023-12-14T09:03:48;5.67;;;4.17;;
19161;SDS011;9713;48.140;11.530;2023-12-14T09:07:30;7.33;;;4.60;;
19161;SDS011;9713;48.140;11.530;2023-12-14T09:11:15;8.03;;;5.27;;
19161;SDS011;9713;48.140;11.530;2023-12-14T09:14:58;7.47;;;4.63;;
19161;SDS011;9713;48.140;11.530;2023-12-14T09:18:41;7.93;;;4.83;;
19161;SDS011;9713;48.140;11.530;2023-12-14T09:22:24;8.00;;;5.03;;
19161;SDS011;9713;48.140;11.530;2023-12-14T09:26:08;7.10;;;4.70;;
19161;SDS011;9713;48.140;11.530;2023-12-14T09:29:53;10.37;;;4.90;;
19161;SDS011;9713;48.140;11.530;2023-12-14T09:33:36;7.63;;;4.50;;
19161;SDS011;9713;48.140;11.530;2023-12-14T09:37:19;9.33;;;4.47;;
19161;SDS011;9713;48.140;11.530;2023-12-14T09:41:02;7.97;;;4.47;;
19161;SDS011;9713;48.140;11.530;2023-12-14T09:44:45;7.27;;;4.33;;
19161;SDS011;9713;48.140;11.530;2023-12-14T09:48:30;7.00;;;4.53;;
19161;SDS011;9713;48.140;11.530;2023-12-14T09:52:14;6.50;;;4.10;;
19161;SDS011;9713;48.140;11.530;2023-12-14T09:55:57;5.63;;;3.50;;
19161;SDS011;9713;48.140;11.530;2023-12-14T09:59:40;5.07;;;3.50;;
19161;SDS011;9713;48.140;11.530;2023-12-14T10:03:25;5.40;;;3.50;;
19161;SDS011;9713;48.140;11.530;2023-12-14T10:07:11;8.57;;;3.77;;
19161;SDS011;9713;48.140;11.530;2023-12-14T10:10:56;12.13;;;3.33;;
19161;SDS011;9713;48.140;11.530;2023-12-14T10:14:39;8.00;;;3.30;;
19161;SDS011;9713;48.140;11.530;2023-12-14T10:18:22;7.33;;;3.17;;
19161;SDS011;9713;48.140;11.530;2023-12-14T10:22:06;8.40;;;3.60;;
19161;SDS011;9713;48.140;11.530;2023-12-14T10:25:51;7.27;;;2.87;;
19161;SDS011;9713;48.140;11.530;2023-12-14T10:29:36;5.87;;;2.70;;
19161;SDS011;9713;48.140;11.530;2023-12-14T10:33:20;3.70;;;2.33;;
19161;SDS011;9713;48.140;11.530;2023-12-14T10:37:04;5.53;;;2.37;;
19161;SDS011;9713;48.140;11.530;2023-12-14T10:40:47;4.53;;;2.60;;
19161;SDS011;9713;48.140;11.530;2023-12-14T10:44:34;4.23;;;2.47;;
19161;SDS011;9713;48.140;11.530;2023-12-14T10:48:38;4.30;;;2.33;;
19161;SDS011;9713;48.140;11.530;2023-12-14T10:52:22;5.57;;;2.20;;
19161;SDS011;9713;48.140;11.530;2023-12-14T10:56:06;3.77;;;2.07;;
19161;SDS011;9713;48.140;11.530;2023-12-14T10:59:56;7.63;;;2.67;;
19161;SDS011;9713;48.140;11.530;2023-12-14T11:03:40;3.00;;;2.07;;
19161;SDS011;9713;48.140;11.530;2023-12-14T11:11:38;3.23;;;2.27;;
19161;SDS011;9713;48.140;11.530;2023-12-14T11:15:24;5.33;;;2.47;;
19161;SDS011;9713;48.140;11.530;2023-12-14T11:19:24;3.53;;;2.20;;
19161;SDS011;9713;48.140;11.530;2023-12-14T11:23:10;3.73;;;2.50;;
19161;SDS011;9713;48.140;11.530;2023-12-14T11:26:54;4.70;;;2.70;;
19161;SDS011;9713;48.140;11.530;2023-12-14T11:30:39;7.13;;;2.30;;
19161;SDS011;9713;48.140;11.530;2023-12-14T11:34:35;2.67;;;1.77;;
19161;SDS011;9713;48.140;11.530;2023-12-14T11:38:18;2.43;;;1.90;;
19161;SDS011;9713;48.140;11.530;2023-12-14T11:42:04;3.77;;;1.87;;
19161;SDS011;9713;48.140;11.530;2023-12-14T11:45:49;3.20;;;1.70;;
19161;SDS011;9713;48.140;11.530;2023-12-14T11:49:32;2.43;;;1.63;;
19161;SDS011;9713;48.140;11.530;2023-12-14T11:53:15;3.27;;;1.57;;
19161;SDS011;9713;48.140;11.530;2023-12-14T11:57:01;2.87;;;1.50;;
19161;SDS011;9713;48.140;11.530;2023-12-14T12:00:45;2.87;;;1.73;;
19161;SDS011;9713;48.140;11.530;2023-12-14T12:04:30;2.40;;;1.40;;
19161;SDS011;9713;48.140;11.530;2023-12-14T12:08:13;1.80;;;1.40;;
19161;SDS011;9713;48.140;11.530;2023-12-14T12:11:57;2.40;;;1.50;;
19161;SDS011;9713;48.140;11.530;2023-12-14T12:15:40;3.53;;;1.60;;
19161;SDS011;9713;48.140;11.530;2023-12-14T12:19:23;2.80;;;1.60;;
19161;SDS011;9713;48.140;11.530;2023-12-14T12:23:07;2.27;;;1.50;;
19161;SDS011;9713;48.140;11.530;2023-12-14T12:26:50;2.40;;;1.53;;
19161;SDS011;9713;48.140;11.530;2023-12-14T12:30:33;2.37;;;1.30;;
19161;SDS011;9713;48.140;11.530;2023-12-14T12:34:20;1.73;;;1.40;;
19161;SDS011;9713;48.140;11.530;2023-12-14T12:38:03;3.77;;;1.40;;
19161;SDS011;9713;48.140;11.530;2023-12-14T12:41:47;2.97;;;1.73;;
19161;SDS011;9713;48.140;11.530;2023-12-14T12:45:30;3.93;;;1.50;;
19161;SDS011;9713;48.140;11.530;2023-12-14T12:49:13;2.30;;;1.50;;
19161;SDS011;9713;48.140;11.530;2023-12-14T12:52:56;1.73;;;1.37;;
19161;SDS011;9713;48.140;11.530;2023-12-14T12:56:39;2.63;;;1.53;;
19161;SDS011;9713;48.140;11.530;2023-12-14T13:00:24;1.97;;;1.23;;
19161;SDS011;9713;48.140;11.530;2023-12-14T13:04:17;1.93;;;1.57;;
19161;SDS011;9713;48.140;11.530;2023-12-14T13:08:00;2.40;;;1.33;;
19161;SDS011;9713;48.140;11.530;2023-12-14T13:11:43;1.60;;;1.20;;
19161;SDS011;9713;48.140;11.530;2023-12-14T13:15:27;2.03;;;1.37;;
19161;SDS011;9713;48.140;11.530;2023-12-14T13:19:12;2.43;;;1.37;;
19161;SDS011;9713;48.140;11.530;2023-12-14T13:22:55;1.73;;;1.20;;
19161;SDS011;9713;48.140;11.530;2023-12-14T13:26:38;1.73;;;1.03;;
19161;SDS011;9713;48.140;11.530;2023-12-14T13:30:20;2.03;;;1.60;;
19161;SDS011;9713;48.140;11.530;2023-12-14T13:34:05;1.83;;;1.33;;
19161;SDS011;9713;48.140;11.530;2023-12-14T13:37:48;2.90;;;1.53;;
19161;SDS011;9713;48.140;11.530;2023-12-14T13:41:31;3.30;;;1.70;;
19161;SDS011;9713;48.140;11.530;2023-12-14T13:45:30;2.60;;;1.70;;
19161;SDS011;9713;48.140;11.530;2023-12-14T13:49:14;3.13;;;1.90;;
19161;SDS011;9713;48.140;11.530;2023-12-14T13:52:57;2.67;;;1.70;;
19161;SDS011;9713;48.140;11.530;2023-12-14T13:56:40;2.73;;;1.80;;
19161;SDS011;9713;48.140;11.530;2023-12-14T14:00:23;3.40;;;2.00;;
19161;SDS011;9713;48.140;11.530;2023-12-14T14:04:07;3.27;;;1.87;;
19161;SDS011;9713;48.140;11.530;2023-12-14T14:07:52;2.80;;;1.60;;
19161;SDS011;9713;48.140;11.530;2023-12-14T14:11:35;4.00;;;1.97;;
19161;SDS011;9713;48.140;11.530;2023-12-14T14:15:18;3.93;;;2.00;;
19161;SDS011;9713;48.140;11.530;2023-12-14T14:19:01;3.37;;;2.07;;
19161;SDS011;9713;48.140;11.530;2023-12-14T14:22:44;3.43;;;2.03;;
19161;SDS011;9713;48.140;11.530;2023-12-14T14:26:28;4.37;;;1.90;;
19161;SDS011;9713;48.140;11.530;2023-12-14T14:30:13;6.80;;;2.27;;
19161;SDS011;9713;48.140;11.530;2023-12-14T14:33:57;5.67;;;2.27;;
19161;SDS011;9713;48.140;11.530;2023-12-14T14:37:40;4.53;;;2.00;;
19161;SDS011;9713;48.140;11.530;2023-12-14T14:41:26;5.27;;;2.10;;
19161;SDS011;9713;48.140;11.530;2023-12-14T14:45:11;3.70;;;2.17;;
19161;SDS011;9713;48.140;11.530;2023-12-14T14:48:54;4.20;;;2.30;;
19161;SDS011;9713;48.140;11.530;2023-12-14T14:52:37;4.90;;;2.60;;
19161;SDS011;9713;48.140;11.530;2023-12-14T14:56:20;3.90;;;2.47;;
19161;SDS011;9713;48.140;11.530;2023-12-14T15:00:04;3.20;;;2.20;;
19161;SDS011;9713;48.140;11.530;2023-12-14T15:03:48;3.73;;;2.47;;
19161;SDS011;9713;48.140;11.530;2023-12-14T15:07:31;4.27;;;2.67;;
19161;SDS011;9713;48.140;11.530;2023-12-14T15:11:14;6.20;;;3.20;;
19161;SDS011;9713;48.140;11.530;2023-12-14T15:14:57;4.20;;;2.77;;
19161;SDS011;9713;48.140;11.530;2023-12-14T15:18:40;6.03;;;3.17;;
19161;SDS011;9713;48.140;11.530;2023-12-14T15:22:25;6.23;;;3.20;;
19161;SDS011;9713;48.140;11.530;2023-12-14T15:26:08;8.77;;;3.57;;
19161;SDS011;9713;48.140;11.530;2023-12-14T15:39:40;7.73;;;3.60;;
19161;SDS011;9713;48.140;11.530;2023-12-14T15:44:05;5.73;;;3.77;;
19161;SDS011;9713;48.140;11.530;2023-12-14T15:47:48;9.57;;;3.73;;
19161;SDS011;9713;48.140;11.530;2023-12-14T15:51:32;7.73;;;4.33;;
19161;SDS011;9713;48.140;11.530;2023-12-14T15:55:16;7.03;;;4.37;;
19161;SDS011;9713;48.140;11.530;2023-12-14T15:58:59;5.83;;;3.70;;
19161;SDS011;9713;48.140;11.530;2023-12-14T16:02:42;8.27;;;4.10;;
19161;SDS011;9713;48.140;11.530;2023-12-14T16:06:25;7.10;;;3.97;;
19161;SDS011;9713;48.140;11.530;2023-12-14T16:10:08;8.50;;;4.20;;
19161;SDS011;9713;48.140;11.530;2023-12-14T16:13:53;7.57;;;4.23;;
19161;SDS011;9713;48.140;11.530;2023-12-14T16:17:36;8.57;;;4.33;;
19161;SDS011;9713;48.140;11.530;2023-12-14T16:21:18;5.83;;;3.67;;
19161;SDS011;9713;48.140;11.530;2023-12-14T16:25:01;5.83;;;3.87;;
19161;SDS011;9713;48.140;11.530;2023-12-14T16:28:44;6.17;;;3.60;;
19161;SDS011;9713;48.140;11.530;2023-12-14T16:32:28;13.27;;;7.37;;
19161;SDS011;9713;48.140;11.530;2023-12-14T16:36:11;5.20;;;3.50;;
19161;SDS011;9713;48.140;11.530;2023-12-14T16:39:55;6.07;;;3.00;;
19161;SDS011;9713;48.140;11.530;2023-12-14T16:43:38;7.43;;;3.47;;
19161;SDS011;9713;48.140;11.530;2023-12-14T16:47:21;4.63;;;3.00;;
19161;SDS011;9713;48.140;11.530;2023-12-14T16:51:05;6.80;;;3.07;;
19161;SDS011;9713;48.140;11.530;2023-12-14T16:54:49;5.37;;;3.30;;
19161;SDS011;9713;48.140;11.530;2023-12-14T16:58:32;4.53;;;2.73;;
19161;SDS011;9713;48.140;11.530;2023-12-14T17:02:16;4.73;;;2.73;;
19161;SDS011;9713;48.140;11.530;2023-12-14T17:05:59;4.53;;;2.60;;
19161;SDS011;9713;48.140;11.530;2023-12-14T17:09:43;4.10;;;2.50;;
19161;SDS011;9713;48.140;11.530;2023-12-14T17:13:26;5.07;;;2.83;;
19161;SDS011;9713;48.140;11.530;2023-12-14T17:17:09;4.17;;;2.83;;
19161;SDS011;9713;48.140;11.530;2023-12-14T17:20:52;3.83;;;2.90;;
19161;SDS011;9713;48.140;11.530;2023-12-14T17:24:34;7.90;;;3.17;;
19161;SDS011;9713;48.140;11.530;2023-12-14T17:28:19;5.60;;;3.10;;
19161;SDS011;9713;48.140;11.530;2023-12-14T17:32:03;5.73;;;3.10;;
19161;SDS011;9713;48.140;11.530;2023-12-14T17:35:46;7.80;;;3.17;;
19161;SDS011;9713;48.140;11.530;2023-12-14T17:39:29;4.77;;;3.20;;
19161;SDS011;9713;48.140;11.530;2023-12-14T17:43:11;7.10;;;3.53;;
19161;SDS011;9713;48.140;11.530;2023-12-14T17:46:56;4.93;;;3.13;;
19161;SDS011;9713;48.140;11.530;2023-12-14T17:50:38;7.00;;;3.10;;
19161;SDS011;9713;48.140;11.530;2023-12-14T17:54:22;5.40;;;3.10;;
19161;SDS011;9713;48.140;11.530;2023-12-14T17:58:04;3.87;;;2.57;;
19161;SDS011;9713;48.140;11.530;2023-12-14T18:01:47;4.77;;;2.97;;
19161;SDS011;9713;48.140;11.530;2023-12-14T18:05:31;4.87;;;3.10;;
19161;SDS011;9713;48.140;11.530;2023-12-14T18:09:15;6.33;;;3.80;;
19161;SDS011;9713;48.140;11.530;2023-12-14T18:12:58;5.20;;;3.37;;
19161;SDS011;9713;48.140;11.530;2023-12-14T18:16:45;7.27;;;4.10;;
19161;SDS011;9713;48.140;11.530;2023-12-14T18:20:28;5.53;;;3.77;;
19161;SDS011;9713;48.140;11.530;2023-12-14T18:24:12;7.60;;;4.70;;
19161;SDS011;9713;48.140;11.530;2023-12-14T18:27:55;7.27;;;3.77;;
19161;SDS011;9713;48.140;11.530;2023-12-14T18:31:43;6.70;;;3.80;;
19161;SDS011;9713;48.140;11.530;2023-12-14T18:35:25;6.60;;;4.40;;
19161;SDS011;9713;48.140;11.530;2023-12-14T18:39:08;8.80;;;5.13;;
19161;SDS011;9713;48.140;11.530;2023-12-14T18:42:53;9.77;;;5.57;;
19161;SDS011;9713;48.140;11.530;2023-12-14T18:46:35;6.83;;;3.90;;
19161;SDS011;9713;48.140;11.530;2023-12-14T18:50:18;6.00;;;3.60;;
19161;SDS011;9713;48.140;11.530;2023-12-14T18:54:01;6.67;;;4.17;;
19161;SDS011;9713;48.140;11.530;2023-12-14T18:57:44;7.53;;;4.20;;
19161;SDS011;9713;48.140;11.530;2023-12-14T19:01:29;7.70;;;4.17;;
19161;SDS011;9713;48.140;11.530;2023-12-14T19:05:12;9.90;;;5.50;;
19161;SDS011;9713;48.140;11.530;2023-12-14T19:08:56;6.40;;;4.00;;
19161;SDS011;9713;48.140;11.530;2023-12-14T19:12:41;7.73;;;5.13;;
19161;SDS011;9713;48.140;11.530;2023-12-14T19:16:24;6.67;;;4.30;;
19161;SDS011;9713;48.140;11.530;2023-12-14T19:20:10;8.80;;;5.00;;
19161;SDS011;9713;48.140;11.530;2023-12-14T19:23:53;8.20;;;5.30;;
19161;SDS011;9713;48.140;11.530;2023-12-14T19:27:37;9.13;;;5.40;;
19161;SDS011;9713;48.140;11.530;2023-12-14T19:31:22;9.23;;;6.00;;
19161;SDS011;9713;48.140;11.530;2023-12-14T19:35:06;13.67;;;6.60;;
19161;SDS011;9713;48.140;11.530;2023-12-14T19:38:50;11.27;;;6.40;;
19161;SDS011;9713;48.140;11.530;2023-12-14T19:42:34;11.33;;;6.73;;
19161;SDS011;9713;48.140;11.530;2023-12-14T19:46:18;11.40;;;6.50;;
19161;SDS011;9713;48.140;11.530;2023-12-14T19:50:01;9.37;;;6.20;;
19161;SDS011;9713;48.140;11.530;2023-12-14T19:53:44;11.13;;;6.67;;
19161;SDS011;9713;48.140;11.530;2023-12-14T19:57:29;12.27;;;7.47;;
19161;SDS011;9713;48.140;11.530;2023-12-14T20:01:12;13.53;;;7.30;;
19161;SDS011;9713;48.140;11.530;2023-12-14T20:04:55;13.77;;;8.00;;
19161;SDS011;9713;48.140;11.530;2023-12-14T20:08:38;13.17;;;7.63;;
19161;SDS011;9713;48.140;11.530;2023-12-14T20:12:21;14.27;;;8.30;;
19161;SDS011;9713;48.140;11.530;2023-12-14T20:16:07;12.37;;;8.17;;
19161;SDS011;9713;48.140;11.530;2023-12-14T20:19:50;15.53;;;8.27;;
19161;SDS011;9713;48.140;11.530;2023-12-14T20:23:33;15.63;;;8.13;;
19161;SDS011;9713;48.140;11.530;2023-12-14T20:27:16;11.57;;;7.30;;
19161;SDS011;9713;48.140;11.530;2023-12-14T20:30:59;15.63;;;8.47;;
19161;SDS011;9713;48.140;11.530;2023-12-14T20:34:43;13.13;;;8.00;;
19161;SDS011;9713;48.140;11.530;2023-12-14T20:38:26;12.70;;;6.37;;
19161;SDS011;9713;48.140;11.530;2023-12-14T20:42:09;8.43;;;4.53;;
19161;SDS011;9713;48.140;11.530;2023-12-14T20:45:51;5.13;;;3.40;;
19161;SDS011;9713;48.140;11.530;2023-12-14T20:49:34;6.60;;;3.33;;
19161;SDS011;9713;48.140;11.530;2023-12-14T20:53:18;6.83;;;3.03;;
19161;SDS011;9713;48.140;11.530;2023-12-14T20:57:01;7.07;;;3.30;;
19161;SDS011;9713;48.140;11.530;2023-12-14T21:00:44;6.40;;;3.47;;
19161;SDS011;9713;48.140;11.530;2023-12-14T21:04:27;13.37;;;6.60;;
19161;SDS011;9713;48.140;11.530;2023-12-14T21:08:10;4.80;;;3.07;;
19161;SDS011;9713;48.140;11.530;2023-12-14T21:11:54;4.87;;;3.20;;
19161;SDS011;9713;48.140;11.530;2023-12-14T21:15:37;5.63;;;3.20;;
19161;SDS011;9713;48.140;11.530;2023-12-14T21:19:20;4.60;;;3.07;;
19161;SDS011;9713;48.140;11.530;2023-12-14T21:23:03;5.17;;;3.53;;
19161;SDS011;9713;48.140;11.530;2023-12-14T21:26:46;6.10;;;3.70;;
19161;SDS011;9713;48.140;11.530;2023-12-14T21:30:50;5.17;;;3.60;;
19161;SDS011;9713;48.140;11.530;2023-12-14T21:34:33;8.30;;;4.03;;
19161;SDS011;9713;48.140;11.530;2023-12-14T21:38:16;5.40;;;3.80;;
19161;SDS011;9713;48.140;11.530;2023-12-14T21:41:58;6.63;;;4.27;;
19161;SDS011;9713;48.140;11.530;2023-12-14T21:45:41;6.87;;;4.30;;
19161;SDS011;9713;48.140;11.530;2023-12-14T21:49:26;6.20;;;4.10;;
19161;SDS011;9713;48.140;11.530;2023-12-14T21:53:08;9.70;;;4.50;;
19161;SDS011;9713;48.140;11.530;2023-12-14T21:56:51;8.97;;;5.03;;
19161;SDS011;9713;48.140;11.530;2023-12-14T22:00:34;8.90;;;5.30;;
19161;SDS011;9713;48.140;11.530;2023-12-14T22:04:17;9.53;;;5.53;;
19161;SDS011;9713;48.140;11.530;2023-12-14T22:08:01;8.13;;;5.23;;
19161;SDS011;9713;48.140;11.530;2023-12-14T22:11:44;10.30;;;5.83;;
19161;SDS011;9713;48.140;11.530;2023-12-14T22:15:27;9.23;;;5.57;;
19161;SDS011;9713;48.140;11.530;2023-12-14T22:19:09;10.07;;;5.77;;
19161;SDS011;9713;48.140;11.530;2023-12-14T22:22:53;10.63;;;6.17;;
19161;SDS011;9713;48.140;11.530;2023-12-14T22:26:38;11.43;;;6.50;;
19161;SDS011;9713;48.140;11.530;2023-12-14T22:30:21;9.20;;;6.17;;
19161;SDS011;9713;48.140;11.530;2023-12-14T22:34:03;10.30;;;6.70;;
19161;SDS011;9713;48.140;11.530;2023-12-14T22:37:46;11.53;;;6.73;;